createdAt,value
2019-05-25T00:01:48.388Z,7.53
2019-05-25T00:04:18.592Z,6.80
2019-05-25T00:06:48.841Z,7.27
2019-05-25T00:09:19.205Z,7.23
2019-05-25T00:11:49.517Z,6.80
2019-05-25T00:14:19.718Z,7.07
2019-05-25T00:16:50.039Z,7.40
2019-05-25T00:19:20.317Z,7.27
2019-05-25T00:21:50.774Z,7.23
2019-05-25T00:24:21.095Z,7.90
2019-05-25T00:26:51.410Z,8.07
2019-05-25T00:29:21.756Z,7.30
2019-05-25T00:31:52.093Z,8.07
2019-05-25T00:34:22.334Z,7.30
2019-05-25T00:36:52.641Z,7.83
2019-05-25T00:39:22.949Z,7.87
2019-05-25T00:41:53.354Z,7.17
2019-05-25T00:44:23.612Z,7.57
2019-05-25T00:46:53.904Z,7.73
2019-05-25T00:49:26.241Z,7.17
2019-05-25T00:51:56.580Z,7.60
2019-05-25T00:54:28.173Z,6.97
2019-05-25T00:56:58.626Z,6.83
2019-05-25T00:59:28.836Z,7.30
2019-05-25T01:01:59.162Z,7.43
2019-05-25T01:04:29.482Z,6.80
2019-05-25T01:06:59.776Z,7.30
2019-05-25T01:09:30.103Z,6.80
2019-05-25T01:12:00.583Z,6.77
2019-05-25T01:14:30.864Z,7.10
2019-05-25T01:17:01.146Z,7.43
2019-05-25T01:19:31.577Z,7.77
2019-05-25T01:22:01.856Z,7.83
2019-05-25T01:24:43.811Z,8.43
2019-05-25T01:27:04.081Z,7.67
2019-05-25T01:29:34.405Z,7.57
2019-05-25T01:32:04.738Z,7.43
2019-05-25T01:34:35.015Z,7.50
2019-05-25T01:37:05.316Z,8.20
2019-05-25T01:39:35.514Z,7.60
2019-05-25T01:42:05.726Z,6.13
2019-05-25T01:44:36.081Z,5.90
2019-05-25T01:47:06.305Z,6.33
2019-05-25T01:49:36.550Z,7.43
2019-05-25T01:52:07.035Z,8.47
2019-05-25T01:54:37.385Z,7.57
2019-05-25T01:57:07.622Z,7.40
2019-05-25T01:59:37.944Z,6.90
2019-05-25T02:02:08.230Z,7.00
2019-05-25T02:04:38.521Z,7.27
2019-05-25T02:07:08.832Z,8.40
2019-05-25T02:09:39.026Z,7.30
2019-05-25T02:12:09.261Z,7.57
2019-05-25T02:14:39.459Z,8.23
2019-05-25T02:17:09.729Z,8.20
2019-05-25T02:19:40.046Z,8.33
2019-05-25T02:22:10.221Z,7.63
2019-05-25T02:24:40.448Z,8.83
2019-05-25T02:27:10.683Z,9.00
2019-05-25T02:29:40.933Z,8.50
2019-05-25T02:32:11.189Z,9.30
2019-05-25T02:34:41.430Z,9.17
2019-05-25T02:37:11.718Z,9.23
2019-05-25T02:39:42.014Z,10.00
2019-05-25T02:42:12.225Z,9.37
2019-05-25T02:44:42.517Z,9.10
2019-05-25T02:47:12.853Z,8.30
2019-05-25T02:49:43.125Z,8.97
2019-05-25T02:52:13.429Z,9.00
2019-05-25T02:54:43.806Z,9.07
2019-05-25T02:57:14.062Z,9.13
2019-05-25T02:59:44.375Z,9.10
2019-05-25T03:02:14.588Z,9.53
2019-05-25T03:04:44.793Z,9.40
2019-05-25T03:07:15.159Z,9.20
2019-05-25T03:09:47.579Z,9.00
2019-05-25T03:12:18.257Z,8.70
2019-05-25T03:14:48.571Z,9.23
2019-05-25T03:17:18.869Z,9.47
2019-05-25T03:19:49.181Z,9.87
2019-05-25T03:22:19.461Z,9.13
2019-05-25T03:24:49.770Z,9.63
2019-05-25T03:27:20.080Z,8.90
2019-05-25T03:29:50.393Z,9.37
2019-05-25T03:32:20.690Z,8.50
2019-05-25T03:34:50.957Z,9.10
2019-05-25T03:37:21.228Z,8.67
2019-05-25T03:39:51.519Z,9.50
2019-05-25T03:42:21.804Z,9.10
2019-05-25T03:44:52.130Z,9.53
2019-05-25T03:47:22.325Z,9.30
2019-05-25T03:49:52.724Z,9.63
2019-05-25T03:52:22.912Z,9.77
2019-05-25T03:54:53.229Z,9.23
2019-05-25T03:57:23.503Z,9.33
2019-05-25T03:59:53.809Z,8.83
2019-05-25T04:02:24.097Z,8.47
2019-05-25T04:04:54.486Z,8.93
2019-05-25T04:07:24.701Z,8.83
2019-05-25T04:09:55.051Z,8.87
2019-05-25T04:12:25.341Z,8.13
2019-05-25T04:14:55.656Z,8.50
2019-05-25T04:17:25.943Z,7.07
2019-05-25T04:19:56.237Z,8.03
2019-05-25T04:22:26.637Z,8.43
2019-05-25T04:24:56.910Z,8.70
2019-05-25T04:27:27.261Z,7.90
2019-05-25T04:29:57.570Z,8.20
2019-05-25T04:32:27.915Z,7.57
2019-05-25T04:34:58.235Z,7.07
2019-05-25T04:37:28.585Z,7.00
2019-05-25T04:39:58.878Z,7.33
2019-05-25T04:42:29.200Z,8.13
2019-05-25T04:44:59.515Z,7.93
2019-05-25T04:47:29.713Z,8.67
2019-05-25T04:49:59.952Z,7.87
2019-05-25T04:52:30.298Z,8.80
2019-05-25T04:55:00.611Z,8.93
2019-05-25T04:57:30.885Z,8.90
2019-05-25T05:00:01.228Z,8.63
2019-05-25T05:02:31.450Z,8.87
2019-05-25T05:05:01.761Z,18.30
2019-05-25T05:07:32.109Z,12.93
2019-05-25T05:10:03.391Z,9.07
2019-05-25T05:12:33.862Z,10.07
2019-05-25T05:15:04.811Z,9.00
2019-05-25T05:17:35.012Z,8.87
2019-05-25T05:20:06.767Z,10.93
2019-05-25T05:22:36.985Z,10.97
2019-05-25T05:25:08.528Z,9.73
2019-05-25T05:27:39.443Z,8.73
2019-05-25T05:30:09.837Z,9.60
2019-05-25T05:32:40.103Z,9.10
2019-05-25T05:35:10.708Z,8.17
2019-05-25T05:37:42.185Z,9.63
2019-05-25T05:40:13.197Z,9.57
2019-05-25T05:42:45.480Z,9.70
2019-05-25T05:45:16.013Z,9.40
2019-05-25T05:47:48.221Z,9.53
2019-05-25T05:50:18.575Z,9.93
2019-05-25T05:52:50.907Z,9.53
2019-05-25T05:55:24.907Z,9.90
2019-05-25T05:57:55.150Z,9.07
2019-05-25T06:00:25.595Z,9.37
2019-05-25T06:02:55.854Z,10.10
2019-05-25T06:05:26.055Z,9.77
2019-05-25T06:07:56.440Z,9.97
2019-05-25T06:10:26.649Z,9.57
2019-05-25T06:12:56.999Z,10.20
2019-05-25T06:15:27.244Z,9.83
2019-05-25T06:17:57.562Z,10.20
2019-05-25T06:20:27.831Z,9.47
2019-05-25T06:22:58.167Z,9.43
2019-05-25T06:25:28.439Z,9.43
2019-05-25T06:27:58.642Z,9.37
2019-05-25T06:30:29.046Z,9.03
2019-05-25T06:32:59.432Z,9.30
2019-05-25T06:35:29.622Z,8.97
2019-05-25T06:37:59.972Z,8.03
2019-05-25T06:40:30.263Z,7.90
2019-05-25T06:43:00.626Z,8.40
2019-05-25T06:45:30.958Z,8.17
2019-05-25T06:48:01.237Z,7.90
2019-05-25T06:50:31.547Z,7.80
2019-05-25T06:53:01.830Z,8.43
2019-05-25T06:55:32.122Z,9.13
2019-05-25T06:58:02.611Z,8.57
2019-05-25T07:00:33.019Z,8.90
2019-05-25T07:03:04.524Z,8.93
2019-05-25T07:05:36.007Z,8.20
2019-05-25T07:08:07.017Z,8.33
2019-05-25T07:10:37.776Z,8.07
2019-05-25T07:13:08.163Z,9.40
2019-05-25T07:15:38.472Z,9.47
2019-05-25T07:18:08.740Z,9.47
2019-05-25T07:20:45.062Z,8.97
2019-05-25T07:23:15.145Z,9.37
2019-05-25T07:25:45.363Z,9.53
2019-05-25T07:28:15.566Z,8.83
2019-05-25T07:30:46.724Z,8.50
2019-05-25T07:33:17.072Z,7.80
2019-05-25T07:35:47.322Z,8.43
2019-05-25T07:38:17.524Z,7.70
2019-05-25T07:40:47.855Z,7.80
2019-05-25T07:43:18.195Z,8.40
2019-05-25T07:45:48.484Z,8.75
2019-05-25T07:48:18.752Z,7.55
2019-05-25T07:50:48.989Z,7.93
2019-05-25T07:53:19.329Z,8.43
2019-05-25T07:55:49.640Z,8.00
2019-05-25T07:58:19.947Z,6.90
2019-05-25T08:00:50.285Z,7.90
2019-05-25T08:03:20.581Z,8.40
2019-05-25T08:05:50.921Z,7.53
2019-05-25T08:08:21.281Z,8.83
2019-05-25T08:10:51.597Z,8.60
2019-05-25T08:13:21.841Z,8.27
2019-05-25T08:15:52.088Z,7.22
2019-05-25T08:18:22.372Z,7.63
2019-05-25T08:20:52.651Z,8.38
2019-05-25T08:23:22.951Z,7.53
2019-05-25T08:25:53.269Z,7.90
2019-05-25T08:28:32.368Z,8.58
2019-05-25T08:30:55.577Z,7.87
2019-05-25T08:33:25.762Z,7.75
2019-05-25T08:35:56.023Z,8.55
2019-05-25T08:38:26.525Z,7.53
2019-05-25T08:40:56.872Z,7.97
2019-05-25T08:43:27.206Z,8.48
2019-05-25T08:45:57.520Z,8.00
2019-05-25T08:48:27.762Z,8.33
2019-05-25T08:50:59.717Z,8.60
2019-05-25T08:53:40.712Z,8.10
2019-05-25T08:56:02.203Z,9.13
2019-05-25T08:58:47.292Z,9.20
2019-05-25T09:01:04.495Z,8.73
2019-05-25T09:03:34.786Z,8.10
2019-05-25T09:06:05.238Z,7.90
2019-05-25T09:08:35.575Z,8.47
2019-05-25T09:11:05.818Z,8.87
2019-05-25T09:13:36.253Z,7.67
2019-05-25T09:16:06.568Z,7.83
2019-05-25T09:18:40.010Z,7.80
2019-05-25T09:21:10.336Z,8.70
2019-05-25T09:23:40.522Z,8.60
2019-05-25T09:26:13.339Z,9.57
2019-05-25T09:28:42.834Z,8.27
2019-05-25T09:31:13.136Z,9.60
2019-05-25T09:33:43.369Z,8.87
2019-05-25T09:36:13.641Z,9.57
2019-05-25T09:38:43.927Z,8.33
2019-05-25T09:41:14.279Z,8.53
2019-05-25T09:43:44.477Z,8.23
2019-05-25T09:46:14.760Z,7.60
2019-05-25T09:48:45.079Z,8.27
2019-05-25T09:51:15.969Z,7.47
2019-05-25T09:53:46.404Z,7.87
2019-05-25T09:56:16.799Z,8.03
2019-05-25T09:58:47.054Z,7.43
2019-05-25T10:01:17.358Z,7.90
2019-05-25T10:03:47.652Z,14.07
2019-05-25T10:06:18.085Z,8.07
2019-05-25T10:08:48.475Z,7.77
2019-05-25T10:11:18.853Z,7.20
2019-05-25T10:13:49.139Z,7.60
2019-05-25T10:16:19.577Z,8.40
2019-05-25T10:18:49.863Z,7.97
2019-05-25T10:21:20.182Z,7.37
2019-05-25T10:23:50.405Z,6.83
2019-05-25T10:26:23.006Z,7.90
2019-05-25T10:28:52.739Z,7.80
2019-05-25T10:31:23.012Z,7.57
2019-05-25T10:33:53.301Z,7.37
2019-05-25T10:36:23.639Z,6.93
2019-05-25T10:38:53.944Z,7.70
2019-05-25T10:41:24.262Z,7.13
2019-05-25T10:43:54.553Z,6.87
2019-05-25T10:46:24.885Z,6.93
2019-05-25T10:48:55.169Z,6.87
2019-05-25T10:51:25.434Z,6.67
2019-05-25T10:53:55.767Z,7.37
2019-05-25T10:56:26.142Z,6.80
2019-05-25T10:58:56.539Z,12.03
2019-05-25T11:01:26.865Z,7.33
2019-05-25T11:03:57.216Z,8.13
2019-05-25T11:06:27.612Z,7.53
2019-05-25T11:08:57.889Z,8.83
2019-05-25T11:11:28.262Z,5.70
2019-05-25T11:13:58.622Z,6.00
2019-05-25T11:16:28.935Z,5.23
2019-05-25T11:18:59.251Z,5.43
2019-05-25T11:21:29.530Z,4.07
2019-05-25T11:24:03.226Z,4.30
2019-05-25T11:26:33.609Z,3.13
2019-05-25T11:29:03.993Z,3.03
2019-05-25T11:31:34.285Z,2.40
2019-05-25T11:34:04.774Z,2.50
2019-05-25T11:36:35.130Z,2.50
2019-05-25T11:39:08.244Z,2.87
2019-05-25T11:41:38.534Z,2.87
2019-05-25T11:44:08.841Z,2.40
2019-05-25T11:46:39.158Z,2.20
2019-05-25T11:49:22.057Z,3.03
2019-05-25T11:51:41.460Z,2.75
2019-05-25T11:54:11.811Z,3.07
2019-05-25T11:56:42.217Z,3.50
2019-05-25T11:59:12.506Z,3.83
2019-05-25T12:01:42.731Z,4.50
2019-05-25T12:04:13.075Z,4.43
2019-05-25T12:06:44.176Z,4.53
2019-05-25T12:09:14.683Z,4.53
2019-05-25T12:11:45.000Z,6.17
2019-05-25T12:14:15.289Z,4.92
2019-05-25T12:16:45.594Z,7.12
2019-05-25T12:19:15.897Z,6.85
2019-05-25T12:21:46.160Z,8.23
2019-05-25T12:24:16.540Z,6.53
2019-05-25T12:26:46.937Z,6.95
2019-05-25T12:29:17.370Z,5.42
2019-05-25T12:31:47.699Z,5.55
2019-05-25T12:34:18.050Z,5.87
2019-05-25T12:36:48.374Z,5.20
2019-05-25T12:39:18.706Z,5.37
2019-05-25T12:41:49.071Z,5.20
2019-05-25T12:44:19.341Z,6.15
2019-05-25T12:46:49.728Z,6.50
2019-05-25T12:49:20.070Z,6.03
2019-05-25T12:51:50.373Z,5.97
2019-05-25T12:54:20.771Z,6.95
2019-05-25T12:56:51.103Z,7.70
2019-05-25T12:59:21.455Z,7.20
2019-05-25T13:01:51.814Z,5.97
2019-05-25T13:04:22.254Z,5.70
2019-05-25T13:06:52.664Z,5.50
2019-05-25T13:09:23.044Z,5.63
2019-05-25T13:11:53.349Z,4.60
2019-05-25T13:14:23.693Z,4.83
2019-05-25T13:16:54.029Z,4.30
2019-05-25T13:19:24.432Z,4.57
2019-05-25T13:21:54.797Z,4.87
2019-05-25T13:24:26.752Z,4.15
2019-05-25T13:26:57.201Z,5.00
2019-05-25T13:29:27.589Z,4.87
2019-05-25T13:31:57.829Z,4.42
2019-05-25T13:34:28.105Z,4.50
2019-05-25T13:37:01.547Z,4.53
2019-05-25T13:39:30.383Z,5.10
2019-05-25T13:42:00.741Z,5.07
2019-05-25T13:44:31.014Z,4.83
2019-05-25T13:47:01.267Z,4.78
2019-05-25T13:49:31.533Z,5.87
2019-05-25T13:52:01.856Z,6.53
2019-05-25T13:54:32.169Z,10.63
2019-05-25T13:57:02.448Z,6.00
2019-05-25T13:59:32.732Z,5.03
2019-05-25T14:02:02.971Z,6.20
2019-05-25T14:04:33.261Z,5.13
2019-05-25T14:07:06.297Z,5.30
2019-05-25T14:09:36.510Z,4.80
2019-05-25T14:12:06.776Z,4.93
2019-05-25T14:14:37.063Z,7.63
2019-05-25T14:17:07.344Z,8.73
2019-05-25T14:19:41.279Z,9.63
2019-05-25T14:22:09.545Z,8.20
2019-05-25T14:24:39.845Z,6.47
2019-05-25T14:27:10.119Z,6.30
2019-05-25T14:29:40.402Z,5.40
2019-05-25T14:32:10.685Z,5.53
2019-05-25T14:34:41.030Z,6.80
2019-05-25T14:37:12.044Z,7.53
2019-05-25T14:39:42.342Z,8.50
2019-05-25T14:42:12.663Z,9.03
2019-05-25T14:44:42.965Z,8.33
2019-05-25T14:47:13.267Z,8.03
2019-05-25T14:49:43.555Z,8.60
2019-05-25T14:52:13.930Z,9.43
2019-05-25T14:54:44.194Z,9.80
2019-05-25T14:57:14.922Z,9.43
2019-05-25T14:59:45.245Z,9.30
2019-05-25T15:02:15.496Z,8.83
2019-05-25T15:04:45.786Z,9.20
2019-05-25T15:07:16.126Z,8.63
2019-05-25T15:09:46.499Z,7.43
2019-05-25T15:12:16.819Z,7.37
2019-05-25T15:14:47.129Z,7.90
2019-05-25T15:17:17.358Z,7.67
2019-05-25T15:19:47.681Z,7.33
2019-05-25T15:22:18.189Z,7.83
2019-05-25T15:24:48.462Z,6.90
2019-05-25T15:27:19.129Z,7.20
2019-05-25T15:29:49.388Z,5.87
2019-05-25T15:32:20.716Z,6.13
2019-05-25T15:34:51.266Z,5.53
2019-05-25T15:37:21.567Z,5.90
2019-05-25T15:39:51.861Z,5.33
2019-05-25T15:42:22.197Z,4.40
2019-05-25T15:44:52.485Z,3.10
2019-05-25T15:47:22.769Z,3.03
2019-05-25T15:49:53.139Z,2.77
2019-05-25T15:52:23.445Z,2.87
2019-05-25T15:54:53.662Z,2.83
2019-05-25T15:57:23.935Z,3.33
2019-05-25T15:59:54.250Z,3.73
2019-05-25T16:02:36.373Z,3.50
2019-05-25T16:04:56.559Z,4.43
2019-05-25T16:07:26.822Z,4.33
2019-05-25T16:09:57.113Z,5.10
2019-05-25T16:12:27.403Z,5.23
2019-05-25T16:14:59.373Z,5.37
2019-05-25T16:17:29.605Z,4.47
2019-05-25T16:20:00.053Z,4.43
2019-05-25T16:22:30.287Z,4.90
2019-05-25T16:25:00.580Z,5.23
2019-05-25T16:27:30.837Z,4.70
2019-05-25T16:30:01.122Z,5.13
2019-05-25T16:32:31.417Z,4.00
2019-05-25T16:35:01.710Z,4.17
2019-05-25T16:37:32.218Z,3.90
2019-05-25T16:40:02.505Z,3.50
2019-05-25T16:42:32.858Z,3.80
2019-05-25T16:45:05.795Z,3.10
2019-05-25T16:47:35.198Z,2.67
2019-05-25T16:50:05.862Z,2.20
2019-05-25T16:52:36.066Z,2.10
2019-05-25T16:55:06.505Z,2.40
2019-05-25T16:57:36.828Z,3.10
2019-05-25T17:00:07.459Z,2.50
2019-05-25T17:02:37.807Z,3.20
2019-05-25T17:05:08.509Z,3.17
2019-05-25T17:07:38.737Z,3.83
2019-05-25T17:10:09.209Z,4.17
2019-05-25T17:12:39.553Z,4.30
2019-05-25T17:15:09.971Z,4.10
2019-05-25T17:17:40.278Z,4.13
2019-05-25T17:20:10.737Z,4.33
2019-05-25T17:22:41.039Z,3.47
2019-05-25T17:25:11.645Z,3.93
2019-05-25T17:27:41.923Z,3.63
2019-05-25T17:30:14.184Z,4.03
2019-05-25T17:32:44.453Z,4.20
2019-05-25T17:35:15.072Z,4.23
2019-05-25T17:37:45.394Z,3.80
2019-05-25T17:40:15.924Z,3.73
2019-05-25T17:42:46.293Z,3.37
2019-05-25T17:45:16.633Z,4.23
2019-05-25T17:47:46.935Z,3.40
2019-05-25T17:50:17.272Z,3.70
2019-05-25T17:52:47.611Z,3.27
2019-05-25T17:55:17.967Z,3.20
2019-05-25T17:57:48.274Z,3.00
2019-05-25T18:00:35.420Z,3.03
2019-05-25T18:03:06.185Z,3.20
2019-05-25T18:05:36.499Z,3.37
2019-05-25T18:08:07.080Z,3.37
2019-05-25T18:10:52.072Z,3.47
2019-05-25T18:13:09.507Z,3.40
2019-05-25T18:15:39.882Z,3.17
2019-05-25T18:18:10.278Z,3.00
2019-05-25T18:20:40.616Z,3.40
2019-05-25T18:23:10.913Z,3.90
2019-05-25T18:25:41.263Z,4.40
2019-05-25T18:28:11.782Z,4.10
2019-05-25T18:30:42.210Z,4.10
2019-05-25T18:33:12.556Z,4.20
2019-05-25T18:35:42.917Z,3.90
2019-05-25T18:38:13.199Z,4.00
2019-05-25T18:40:43.536Z,3.90
2019-05-25T18:43:13.868Z,3.97
2019-05-25T18:45:44.222Z,3.83
2019-05-25T18:48:14.499Z,3.50
2019-05-25T18:50:44.958Z,4.67
2019-05-25T18:53:15.267Z,4.70
2019-05-25T18:55:45.665Z,4.37
2019-05-25T18:58:15.973Z,3.93
2019-05-25T19:00:46.356Z,4.63
2019-05-25T19:03:16.653Z,6.47
2019-05-25T19:05:46.901Z,4.80
2019-05-25T19:08:17.230Z,4.90
2019-05-25T19:10:47.676Z,5.20
2019-05-25T19:13:17.917Z,5.63
2019-05-25T19:15:48.219Z,5.00
2019-05-25T19:18:18.556Z,4.97
2019-05-25T19:20:49.042Z,5.10
2019-05-25T19:23:19.402Z,4.87
2019-05-25T19:25:49.700Z,5.13
2019-05-25T19:28:20.004Z,5.57
2019-05-25T19:30:50.359Z,5.23
2019-05-25T19:33:20.641Z,6.23
2019-05-25T19:35:54.040Z,5.57
2019-05-25T19:38:22.994Z,5.97
2019-05-25T19:40:53.310Z,5.40
2019-05-25T19:43:23.634Z,5.43
2019-05-25T19:45:53.968Z,5.00
2019-05-25T19:48:24.204Z,5.87
2019-05-25T19:50:56.289Z,5.93
2019-05-25T19:53:26.541Z,6.10
2019-05-25T19:55:56.860Z,6.03
2019-05-25T19:58:27.251Z,6.17
2019-05-25T20:00:57.594Z,6.67
2019-05-25T20:03:27.944Z,6.00
2019-05-25T20:05:58.217Z,5.90
2019-05-25T20:08:28.498Z,5.30
2019-05-25T20:10:58.790Z,5.30
2019-05-25T20:13:29.069Z,5.83
2019-05-25T20:15:59.261Z,5.83
2019-05-25T20:18:29.564Z,6.67
2019-05-25T20:20:59.807Z,5.53
2019-05-25T20:23:30.037Z,5.40
2019-05-25T20:26:00.309Z,5.30
2019-05-25T20:28:30.608Z,4.80
2019-05-25T20:31:00.825Z,4.83
2019-05-25T20:33:34.626Z,4.87
2019-05-25T20:36:03.069Z,4.13
2019-05-25T20:38:33.442Z,3.80
2019-05-25T20:41:03.642Z,4.50
2019-05-25T20:43:33.958Z,4.53
2019-05-25T20:46:04.161Z,4.20
2019-05-25T20:48:34.449Z,4.47
2019-05-25T20:51:04.779Z,3.90
2019-05-25T20:53:35.113Z,4.00
2019-05-25T20:56:05.422Z,4.00
2019-05-25T20:58:35.676Z,4.13
2019-05-25T21:01:05.967Z,4.17
2019-05-25T21:03:36.268Z,4.77
2019-05-25T21:06:06.577Z,4.57
2019-05-25T21:08:36.896Z,5.27
2019-05-25T21:11:07.218Z,5.53
2019-05-25T21:13:37.550Z,4.93
2019-05-25T21:16:07.834Z,4.57
2019-05-25T21:18:38.141Z,4.93
2019-05-25T21:21:08.429Z,4.40
2019-05-25T21:23:38.767Z,4.40
2019-05-25T21:26:09.136Z,4.57
2019-05-25T21:28:39.355Z,4.60
2019-05-25T21:31:09.582Z,4.43
2019-05-25T21:33:39.878Z,4.40
2019-05-25T21:36:10.172Z,4.70
2019-05-25T21:38:40.517Z,4.90
2019-05-25T21:41:10.749Z,4.50
2019-05-25T21:43:41.063Z,4.20
2019-05-25T21:46:11.374Z,4.90
2019-05-25T21:48:41.839Z,4.87
2019-05-25T21:51:12.103Z,5.03
2019-05-25T21:53:42.379Z,4.67
2019-05-25T21:56:12.692Z,4.10
2019-05-25T21:58:42.920Z,4.00
2019-05-25T22:01:13.721Z,4.80
2019-05-25T22:03:43.949Z,4.40
2019-05-25T22:06:23.693Z,4.00
2019-05-25T22:08:46.157Z,4.37
2019-05-25T22:11:16.493Z,3.80
2019-05-25T22:13:46.793Z,5.00
2019-05-25T22:16:17.102Z,4.30
2019-05-25T22:18:47.413Z,4.60
2019-05-25T22:21:17.697Z,4.40
2019-05-25T22:23:47.981Z,4.00
2019-05-25T22:26:18.252Z,4.17
2019-05-25T22:28:48.536Z,4.00
2019-05-25T22:31:18.820Z,4.62
2019-05-25T22:33:49.154Z,4.37
2019-05-25T22:36:19.469Z,4.63
2019-05-25T22:38:49.760Z,4.87
2019-05-25T22:41:20.272Z,4.50
2019-05-25T22:43:50.496Z,5.60
2019-05-25T22:46:20.842Z,4.37
2019-05-25T22:48:51.223Z,4.27
2019-05-25T22:51:21.564Z,4.23
2019-05-25T22:53:51.897Z,4.70
2019-05-25T22:56:22.298Z,4.27
2019-05-25T22:58:52.605Z,4.43
2019-05-25T23:01:22.955Z,4.13
2019-05-25T23:03:53.222Z,4.80
2019-05-25T23:06:23.576Z,5.20
2019-05-25T23:08:53.841Z,6.47
2019-05-25T23:11:24.090Z,6.37
2019-05-25T23:13:54.352Z,5.87
2019-05-25T23:16:24.646Z,6.07
2019-05-25T23:18:55.049Z,5.80
2019-05-25T23:21:25.327Z,5.83
2019-05-25T23:23:55.562Z,5.97
2019-05-25T23:26:25.760Z,5.67
2019-05-25T23:28:56.025Z,6.87
2019-05-25T23:31:26.290Z,6.33
2019-05-25T23:33:56.610Z,6.20
2019-05-25T23:36:26.797Z,6.20
2019-05-25T23:38:57.058Z,7.23
2019-05-25T23:41:27.337Z,6.87
2019-05-25T23:43:59.784Z,6.93
2019-05-25T23:46:29.512Z,6.03
2019-05-25T23:48:59.680Z,6.30
2019-05-25T23:51:30.004Z,6.50
2019-05-25T23:54:00.289Z,6.00
2019-05-25T23:56:30.621Z,5.50
2019-05-25T23:59:00.931Z,5.73
